Time;durP1;ratioP1;P1;durP2;ratioP2;P2;SDS_P1;SDS_P2;PMS_P1;PMS_P2;Temp;Humidity;BMP_temperature;BMP_pressure;BME280_temperature;BME280_humidity;BME280_pressure;Samples;Min_cycle;Max_cycle;Signal;HPM_P1;HPM_P2
2023/11/09 00:02:14;;;;;;;2.80;1.13;;;9.00;99.90;;;;;;5005163;28;20029;-66
2023/11/09 00:04:40;;;;;;;4.60;1.10;;;8.90;99.90;;;;;;5005234;28;20021;-66
2023/11/09 00:07:07;;;;;;;1.75;0.85;;;8.90;99.90;;;;;;5005380;28;20034;-66
2023/11/09 00:09:34;;;;;;;3.53;1.02;;;8.90;99.90;;;;;;5005366;28;20038;-66
2023/11/09 00:12:00;;;;;;;4.38;1.25;;;9.00;99.90;;;;;;5005402;28;20034;-66
2023/11/09 00:14:26;;;;;;;4.53;1.20;;;8.90;99.90;;;;;;5004910;28;20048;-67
2023/11/09 00:16:53;;;;;;;4.28;1.58;;;9.00;99.90;;;;;;5005308;28;20052;-67
2023/11/09 00:19:19;;;;;;;4.47;1.25;;;8.90;99.90;;;;;;5005186;28;20068;-66
2023/11/09 00:21:46;;;;;;;2.35;1.10;;;9.00;99.90;;;;;;5005579;28;20414;-66
2023/11/09 00:24:13;;;;;;;1.88;0.98;;;9.00;99.90;;;;;;5005484;28;20030;-66
2023/11/09 00:26:45;;;;;;;3.88;1.13;;;9.00;99.90;;;;;;5005073;28;20108;-67
2023/11/09 00:29:15;;;;;;;1.30;1.20;;;8.90;99.90;;;;;;5004935;28;20038;-67
2023/11/09 00:31:41;;;;;;;4.05;1.10;;;8.90;99.90;;;;;;5005197;28;20033;-66
2023/11/09 00:34:09;;;;;;;3.58;1.08;;;8.80;99.90;;;;;;5003455;28;20410;-66
2023/11/09 00:36:35;;;;;;;3.33;1.23;;;8.70;99.90;;;;;;5005067;28;20038;-67
2023/11/09 00:39:01;;;;;;;6.50;1.10;;;8.70;99.90;;;;;;5002883;28;20038;-66
2023/11/09 00:41:28;;;;;;;1.45;1.15;;;8.80;99.90;;;;;;5003109;28;20066;-66
2023/11/09 00:43:54;;;;;;;3.08;1.50;;;8.70;99.90;;;;;;5004580;28;20034;-67
2023/11/09 00:46:19;;;;;;;1.25;1.10;;;8.80;99.90;;;;;;5003295;28;20033;-67
2023/11/09 00:48:46;;;;;;;2.75;1.10;;;8.80;99.90;;;;;;4996224;28;20026;-66
2023/11/09 00:51:12;;;;;;;2.70;1.00;;;8.90;99.90;;;;;;5004422;28;20477;-67
2023/11/09 00:53:38;;;;;;;3.13;1.00;;;8.80;99.90;;;;;;5003447;28;20030;-66
2023/11/09 00:56:07;;;;;;;2.50;1.23;;;8.80;99.90;;;;;;5003403;28;20030;-66
2023/11/09 00:58:35;;;;;;;3.28;1.00;;;8.80;99.90;;;;;;5003254;28;20049;-66
2023/11/09 01:01:02;;;;;;;2.67;1.00;;;8.90;99.90;;;;;;5002657;28;20703;-66
2023/11/09 01:03:28;;;;;;;4.93;1.30;;;8.90;99.90;;;;;;5004542;28;20021;-67
2023/11/09 01:05:55;;;;;;;5.53;1.30;;;8.90;99.90;;;;;;5004699;28;20108;-66
2023/11/09 01:08:21;;;;;;;2.85;1.10;;;8.90;99.90;;;;;;5005021;28;20562;-66
2023/11/09 01:10:47;;;;;;;1.85;1.15;;;8.90;99.90;;;;;;5004826;28;20069;-66
2023/11/09 01:13:13;;;;;;;1.63;0.88;;;9.00;99.90;;;;;;5002945;28;20064;-66
2023/11/09 01:15:39;;;;;;;5.80;1.42;;;9.00;99.90;;;;;;5002795;28;20464;-66
2023/11/09 01:18:08;;;;;;;1.80;1.08;;;9.00;99.90;;;;;;5005534;28;20037;-67
2023/11/09 01:20:35;;;;;;;3.45;1.27;;;9.10;99.90;;;;;;5008412;28;20498;-66
2023/11/09 01:23:07;;;;;;;2.97;1.75;;;9.00;99.90;;;;;;5008305;28;20036;-66
2023/11/09 01:25:32;;;;;;;4.10;1.23;;;9.00;99.90;;;;;;5007376;28;20022;-66
2023/11/09 01:27:59;;;;;;;1.38;0.90;;;9.00;99.90;;;;;;5001393;28;20030;-66
2023/11/09 01:30:25;;;;;;;1.75;1.38;;;9.00;99.90;;;;;;5008072;28;20208;-66
2023/11/09 01:32:51;;;;;;;9.20;1.52;;;9.00;99.90;;;;;;5007717;28;20108;-66
2023/11/09 01:35:17;;;;;;;2.45;1.10;;;9.00;99.90;;;;;;5006611;28;20184;-66
2023/11/09 01:37:42;;;;;;;2.33;0.93;;;9.00;99.90;;;;;;5004243;28;20033;-65
2023/11/09 01:40:10;;;;;;;2.40;1.15;;;9.00;99.90;;;;;;5007930;28;20041;-66
2023/11/09 01:42:36;;;;;;;1.48;1.00;;;9.10;99.90;;;;;;5006563;28;20022;-67
2023/11/09 01:45:06;;;;;;;1.48;1.20;;;9.20;99.90;;;;;;5007962;28;20034;-66
2023/11/09 01:47:33;;;;;;;5.45;1.35;;;9.20;99.90;;;;;;5006726;28;20112;-67
2023/11/09 01:49:59;;;;;;;4.55;1.35;;;9.20;99.90;;;;;;5006352;28;20120;-66
2023/11/09 01:52:26;;;;;;;2.28;0.95;;;9.30;99.90;;;;;;5007899;28;20383;-66
2023/11/09 01:54:53;;;;;;;2.40;1.00;;;9.30;99.90;;;;;;5007948;28;20549;-66
2023/11/09 01:57:19;;;;;;;2.90;0.90;;;9.30;99.90;;;;;;4998490;28;20030;-66
2023/11/09 01:59:48;;;;;;;1.73;1.00;;;9.30;99.90;;;;;;5006288;28;20096;-66
2023/11/09 02:02:15;;;;;;;2.45;1.08;;;9.30;99.90;;;;;;5006036;28;20149;-66
2023/11/09 02:04:41;;;;;;;2.08;0.90;;;9.30;99.90;;;;;;5007314;28;20057;-67
2023/11/09 02:07:08;;;;;;;3.92;1.33;;;9.30;99.90;;;;;;5006098;28;20397;-67
2023/11/09 02:09:35;;;;;;;1.27;1.00;;;9.40;99.90;;;;;;5007553;28;20061;-67
2023/11/09 02:12:01;;;;;;;2.25;1.02;;;9.40;99.90;;;;;;5007529;28;20030;-66
2023/11/09 02:14:26;;;;;;;2.00;1.00;;;9.40;99.90;;;;;;5003285;28;20032;-66
2023/11/09 02:16:53;;;;;;;2.25;1.33;;;9.40;99.90;;;;;;5007301;28;20073;-66
2023/11/09 02:19:19;;;;;;;2.65;0.98;;;9.40;99.90;;;;;;5004512;28;20504;-67
2023/11/09 02:21:52;;;;;;;1.27;1.00;;;9.40;99.90;;;;;;5005643;28;20498;-67
2023/11/09 02:24:19;;;;;;;1.92;0.82;;;9.40;99.90;;;;;;4989446;28;20034;-67
2023/11/09 02:26:46;;;;;;;1.58;0.80;;;9.40;99.90;;;;;;5005850;28;20022;-67
2023/11/09 02:29:14;;;;;;;2.25;0.95;;;9.40;99.90;;;;;;5006611;28;20465;-66
2023/11/09 02:31:41;;;;;;;3.15;1.10;;;9.40;99.90;;;;;;5005952;28;20037;-66
2023/11/09 02:34:11;;;;;;;1.70;0.98;;;9.40;99.90;;;;;;5004400;28;20040;-67
2023/11/09 02:36:38;;;;;;;1.25;1.15;;;9.40;99.90;;;;;;5006994;28;20033;-66
2023/11/09 02:39:05;;;;;;;2.90;1.00;;;9.40;99.90;;;;;;5004250;28;20067;-66
2023/11/09 02:41:31;;;;;;;3.33;0.90;;;9.50;99.90;;;;;;5006751;28;20032;-66
2023/11/09 02:43:56;;;;;;;1.55;0.70;;;9.50;99.90;;;;;;5006611;28;20445;-66
2023/11/09 02:46:22;;;;;;;1.27;0.85;;;9.60;99.90;;;;;;5005375;28;20030;-65
2023/11/09 02:48:48;;;;;;;1.33;1.00;;;9.60;99.90;;;;;;5005229;28;20025;-67
2023/11/09 02:51:14;;;;;;;1.30;0.80;;;9.60;99.90;;;;;;5006677;28;20038;-66
2023/11/09 02:53:40;;;;;;;3.53;1.27;;;9.60;99.90;;;;;;5005092;28;20021;-66
2023/11/09 02:56:07;;;;;;;4.45;0.80;;;9.60;99.90;;;;;;5006806;28;20030;-66
2023/11/09 02:58:36;;;;;;;1.55;0.70;;;9.60;99.90;;;;;;5005231;28;20025;-66
2023/11/09 03:01:02;;;;;;;1.45;1.02;;;9.50;99.90;;;;;;5005338;28;20127;-66
2023/11/09 03:03:28;;;;;;;1.73;0.82;;;9.50;99.90;;;;;;5005944;28;20125;-66
2023/11/09 03:05:57;;;;;;;4.97;1.00;;;9.60;99.90;;;;;;5005071;28;20069;-67
2023/11/09 03:08:23;;;;;;;1.23;0.93;;;9.70;99.90;;;;;;5006749;28;20026;-66
2023/11/09 03:10:50;;;;;;;3.70;1.10;;;9.70;99.90;;;;;;5005057;28;20033;-66
2023/11/09 03:13:19;;;;;;;1.83;1.13;;;9.70;99.90;;;;;;5005122;28;20570;-66
2023/11/09 03:15:47;;;;;;;3.05;0.60;;;9.60;99.90;;;;;;5006520;28;20081;-67
2023/11/09 03:18:13;;;;;;;1.17;0.77;;;9.70;99.90;;;;;;5006709;28;20034;-66
2023/11/09 03:20:41;;;;;;;2.92;1.00;;;9.70;99.90;;;;;;5006490;28;20729;-67
2023/11/09 03:23:08;;;;;;;2.05;1.10;;;9.70;99.90;;;;;;5005199;28;20483;-66
2023/11/09 03:25:34;;;;;;;0.98;0.90;;;9.70;99.90;;;;;;5005932;28;20077;-67
2023/11/09 03:28:00;;;;;;;1.23;0.70;;;9.70;99.90;;;;;;5004717;28;20058;-67
2023/11/09 03:30:30;;;;;;;1.63;0.70;;;9.80;99.90;;;;;;5001343;28;20107;-66
2023/11/09 03:32:58;;;;;;;3.08;0.85;;;9.80;99.90;;;;;;5004462;28;20033;-67
2023/11/09 03:35:24;;;;;;;1.08;0.60;;;9.90;99.90;;;;;;5006259;28;20046;-66
2023/11/09 03:37:50;;;;;;;1.85;1.00;;;9.80;99.90;;;;;;5006316;28;20091;-66
2023/11/09 03:40:16;;;;;;;1.30;0.93;;;9.70;99.90;;;;;;5005081;28;20146;-66
2023/11/09 03:42:43;;;;;;;3.45;0.75;;;9.60;99.90;;;;;;5004281;28;20375;-66
2023/11/09 03:45:09;;;;;;;1.80;0.65;;;9.70;99.90;;;;;;5030717;28;20030;-67
2023/11/09 03:47:35;;;;;;;3.53;1.02;;;9.80;99.90;;;;;;5005753;28;20030;-66
2023/11/09 03:50:01;;;;;;;1.08;0.80;;;9.90;99.90;;;;;;5005615;28;20034;-67
2023/11/09 03:52:27;;;;;;;2.35;0.80;;;9.90;99.90;;;;;;5005581;28;20034;-67
2023/11/09 03:54:56;;;;;;;4.65;0.88;;;9.90;99.90;;;;;;5006366;28;20087;-67
2023/11/09 03:57:22;;;;;;;1.45;0.70;;;10.00;99.90;;;;;;5006090;28;20041;-66
2023/11/09 03:59:49;;;;;;;0.47;0.43;;;10.00;99.90;;;;;;5006006;28;20042;-67
2023/11/09 04:02:16;;;;;;;3.42;1.05;;;10.10;99.90;;;;;;5005519;28;20025;-67
2023/11/09 04:04:41;;;;;;;5.72;0.80;;;10.10;99.90;;;;;;5005879;28;20034;-66
2023/11/09 04:07:07;;;;;;;1.20;0.65;;;10.10;99.90;;;;;;5004622;28;20060;-66
2023/11/09 04:09:33;;;;;;;0.73;0.57;;;10.10;99.90;;;;;;5005523;28;20375;-67
2023/11/09 04:11:59;;;;;;;1.00;0.90;;;10.20;99.90;;;;;;5005271;28;20044;-66
2023/11/09 04:14:25;;;;;;;0.85;0.60;;;10.20;99.80;;;;;;5005440;28;20498;-66
2023/11/09 04:16:50;;;;;;;1.35;0.77;;;10.30;99.60;;;;;;5005633;28;20120;-65
2023/11/09 04:19:19;;;;;;;1.60;0.80;;;10.30;99.60;;;;;;5005040;28;20042;-67
2023/11/09 04:21:45;;;;;;;1.35;0.80;;;10.30;99.40;;;;;;5000927;28;20029;-66
2023/11/09 04:24:11;;;;;;;4.60;0.65;;;10.30;99.40;;;;;;5003996;28;20069;-66
2023/11/09 04:26:37;;;;;;;1.33;0.80;;;10.30;99.60;;;;;;5005168;28;20060;-66
2023/11/09 04:29:03;;;;;;;1.52;0.80;;;10.20;99.70;;;;;;5005123;28;20447;-66
2023/11/09 04:31:30;;;;;;;4.80;0.73;;;10.20;99.70;;;;;;5005002;28;20072;-64
2023/11/09 04:34:09;;;;;;;2.53;0.80;;;10.30;99.70;;;;;;5005152;28;20148;-66
2023/11/09 04:36:44;;;;;;;0.73;0.73;;;10.30;99.60;;;;;;5001419;28;20117;-62
2023/11/09 04:39:13;;;;;;;1.02;0.60;;;10.40;99.30;;;;;;5002173;28;20399;-66
2023/11/09 04:41:41;;;;;;;0.77;0.68;;;10.40;99.20;;;;;;5001380;28;20044;-66
2023/11/09 04:44:08;;;;;;;0.55;0.50;;;10.50;99.00;;;;;;5004671;28;20518;-65
2023/11/09 04:46:40;;;;;;;2.33;0.75;;;10.40;99.00;;;;;;5006565;28;20029;-64
2023/11/09 04:49:07;;;;;;;3.78;0.80;;;10.40;99.00;;;;;;5002535;28;20053;-65
2023/11/09 04:51:35;;;;;;;2.42;0.80;;;10.40;99.00;;;;;;5004659;28;20034;-66
2023/11/09 04:54:07;;;;;;;0.93;0.50;;;10.40;98.90;;;;;;5004744;28;20037;-67
2023/11/09 04:56:52;;;;;;;2.40;0.63;;;10.40;98.80;;;;;;5004978;28;20026;-67
2023/11/09 05:07:28;;;;;;;1.73;0.63;;;10.30;99.10;;;;;;4997520;28;20030;-64
2023/11/09 05:09:55;;;;;;;2.13;0.80;;;10.40;99.10;;;;;;5003122;28;20117;-66
2023/11/09 05:12:20;;;;;;;0.90;0.60;;;10.40;99.20;;;;;;4996759;28;20037;-67
2023/11/09 05:14:46;;;;;;;0.70;0.40;;;10.50;99.20;;;;;;5004614;28;20552;-66
2023/11/09 05:17:13;;;;;;;1.42;0.77;;;10.50;98.90;;;;;;5004874;28;20034;-68
2023/11/09 05:19:43;;;;;;;3.22;0.80;;;10.40;99.20;;;;;;5004668;28;20112;-67
2023/11/09 05:22:10;;;;;;;2.63;0.68;;;10.40;99.20;;;;;;5004596;28;20034;-67
2023/11/09 05:24:42;;;;;;;3.80;0.45;;;10.40;99.30;;;;;;5004445;28;20069;-68
2023/11/09 05:27:08;;;;;;;1.38;0.80;;;10.40;99.40;;;;;;5004485;28;20044;-66
2023/11/09 05:29:35;;;;;;;1.00;0.93;;;10.30;99.40;;;;;;5002317;28;20156;-64
2023/11/09 05:32:06;;;;;;;1.92;0.80;;;10.30;99.30;;;;;;4997072;28;20038;-64
2023/11/09 05:34:36;;;;;;;3.05;0.80;;;10.30;99.50;;;;;;5000596;28;20042;-64
2023/11/09 05:37:03;;;;;;;2.58;0.85;;;10.30;99.50;;;;;;4994343;28;20499;-64
2023/11/09 05:39:29;;;;;;;1.65;0.80;;;10.30;99.50;;;;;;5001705;28;20030;-64
2023/11/09 05:41:57;;;;;;;1.35;0.70;;;10.40;99.40;;;;;;4994018;28;20120;-64
2023/11/09 05:44:23;;;;;;;1.33;0.80;;;10.30;99.60;;;;;;4999342;28;20030;-64
2023/11/09 05:46:49;;;;;;;2.40;1.65;;;10.30;99.50;;;;;;4996278;28;20042;-63
2023/11/09 05:49:15;;;;;;;2.13;0.60;;;10.30;99.30;;;;;;5000575;28;20062;-63
2023/11/09 05:51:45;;;;;;;1.33;0.82;;;10.40;99.00;;;;;;4995492;28;20029;-64
2023/11/09 05:54:11;;;;;;;0.60;0.60;;;10.40;99.00;;;;;;4999584;28;20114;-63
2023/11/09 05:56:37;;;;;;;0.95;0.65;;;10.50;99.00;;;;;;4996185;28;20486;-64
2023/11/09 05:59:03;;;;;;;2.70;1.00;;;10.50;98.80;;;;;;4998557;28;20100;-64
2023/11/09 06:01:30;;;;;;;1.65;0.77;;;10.50;98.70;;;;;;4997286;28;20041;-63
2023/11/09 06:04:03;;;;;;;1.60;0.95;;;10.50;99.10;;;;;;4998421;28;20034;-64
2023/11/09 06:06:31;;;;;;;2.88;1.42;;;10.50;98.90;;;;;;5003218;28;20030;-64
2023/11/09 06:08:59;;;;;;;1.35;0.90;;;10.40;98.90;;;;;;5001310;28;20033;-63
2023/11/09 06:11:29;;;;;;;1.88;0.70;;;10.50;98.90;;;;;;5001681;28;20088;-63
2023/11/09 06:13:55;;;;;;;0.85;0.70;;;10.50;98.70;;;;;;5001069;28;20050;-64
2023/11/09 06:16:21;;;;;;;1.30;1.00;;;10.50;99.00;;;;;;5000835;28;20036;-64
2023/11/09 06:18:48;;;;;;;2.17;0.73;;;10.40;98.90;;;;;;5001496;28;20576;-63
2023/11/09 06:21:14;;;;;;;1.15;0.73;;;10.50;98.80;;;;;;4999827;28;20041;-64
2023/11/09 06:23:40;;;;;;;1.13;0.70;;;10.50;98.50;;;;;;5002325;28;20029;-64
2023/11/09 06:26:06;;;;;;;1.10;0.80;;;10.50;98.50;;;;;;4999379;28;20037;-63
2023/11/09 06:28:31;;;;;;;1.13;0.73;;;10.50;98.60;;;;;;5002572;28;20068;-62
2023/11/09 06:30:58;;;;;;;1.95;0.77;;;10.50;98.60;;;;;;4999430;28;20061;-64
2023/11/09 06:33:23;;;;;;;1.30;0.65;;;10.40;98.70;;;;;;5002367;28;20065;-64
2023/11/09 06:35:49;;;;;;;1.48;0.90;;;10.40;99.20;;;;;;5000654;28;20566;-64
2023/11/09 06:38:19;;;;;;;1.27;0.95;;;10.40;98.60;;;;;;5001516;28;20146;-64
2023/11/09 06:40:47;;;;;;;1.00;0.80;;;10.40;98.70;;;;;;4999335;28;20596;-63
2023/11/09 06:43:13;;;;;;;2.63;0.73;;;10.40;98.60;;;;;;5000822;28;20037;-63
2023/11/09 06:45:39;;;;;;;1.40;0.93;;;10.50;98.60;;;;;;5003771;28;20029;-63
2023/11/09 06:48:05;;;;;;;2.55;1.17;;;10.50;98.60;;;;;;4999969;28;20030;-64
2023/11/09 06:50:32;;;;;;;3.13;0.60;;;10.50;98.50;;;;;;5002745;28;20037;-64
2023/11/09 06:52:59;;;;;;;2.45;0.70;;;10.60;98.50;;;;;;4998556;28;20034;-64
2023/11/09 06:55:25;;;;;;;1.73;0.77;;;10.70;98.30;;;;;;4989573;28;20057;-64
2023/11/09 06:57:53;;;;;;;2.25;0.88;;;10.80;98.20;;;;;;4999936;28;20061;-64
2023/11/09 07:00:22;;;;;;;2.53;0.90;;;10.90;97.90;;;;;;5002513;28;20033;-64
2023/11/09 07:02:49;;;;;;;1.98;0.63;;;11.00;97.90;;;;;;4999249;28;20033;-64
2023/11/09 07:05:15;;;;;;;2.10;0.75;;;11.00;97.90;;;;;;5000924;28;20042;-64
2023/11/09 07:07:41;;;;;;;1.73;0.95;;;10.90;97.60;;;;;;5014525;28;20022;-64
2023/11/09 07:10:08;;;;;;;0.85;0.63;;;10.90;97.80;;;;;;5000136;28;20031;-64
2023/11/09 07:12:35;;;;;;;4.13;0.80;;;10.90;98.00;;;;;;4998483;28;20038;-62
2023/11/09 07:15:01;;;;;;;1.90;0.80;;;11.00;97.90;;;;;;5000298;28;20078;-64
2023/11/09 07:17:27;;;;;;;2.22;1.02;;;10.90;97.90;;;;;;5000882;28;20153;-64
2023/11/09 07:19:53;;;;;;;1.02;0.80;;;10.90;98.10;;;;;;5001909;28;20109;-64
2023/11/09 07:22:22;;;;;;;1.10;0.82;;;11.00;97.90;;;;;;4997918;28;20769;-64
2023/11/09 07:24:56;;;;;;;2.65;0.75;;;11.00;98.00;;;;;;5001655;28;20144;-63
2023/11/09 07:27:25;;;;;;;1.17;0.77;;;11.00;97.70;;;;;;4998369;28;20878;-64
2023/11/09 07:29:51;;;;;;;1.20;0.90;;;11.00;97.60;;;;;;5003838;28;20044;-64
2023/11/09 07:32:17;;;;;;;3.05;0.80;;;11.10;97.20;;;;;;4998418;28;20425;-63
2023/11/09 07:34:44;;;;;;;1.63;0.80;;;11.10;97.50;;;;;;5002851;28;20030;-63
2023/11/09 07:37:13;;;;;;;2.67;1.00;;;11.10;97.90;;;;;;4996695;28;20041;-64
2023/11/09 07:39:40;;;;;;;0.75;0.57;;;11.20;97.40;;;;;;5002604;28;20108;-64
2023/11/09 07:42:06;;;;;;;1.98;0.80;;;11.10;97.20;;;;;;4996331;28;20034;-63
2023/11/09 07:44:33;;;;;;;3.28;0.73;;;11.10;97.20;;;;;;5003173;28;20539;-64
2023/11/09 07:46:59;;;;;;;2.20;0.70;;;11.10;97.40;;;;;;4998515;28;20148;-64
2023/11/09 07:49:29;;;;;;;2.08;0.70;;;11.10;96.90;;;;;;5002964;28;20058;-63
2023/11/09 07:51:55;;;;;;;2.97;0.88;;;11.20;96.80;;;;;;4997293;28;20140;-64
2023/11/09 07:54:21;;;;;;;1.23;0.80;;;11.30;96.80;;;;;;5002392;28;20549;-63
2023/11/09 07:56:48;;;;;;;1.02;0.60;;;11.40;96.70;;;;;;4998228;28;20030;-63
2023/11/09 07:59:14;;;;;;;2.50;0.57;;;11.50;96.40;;;;;;5001748;28;20041;-63
2023/11/09 08:01:40;;;;;;;1.13;0.65;;;11.60;96.20;;;;;;4999235;28;20030;-63
2023/11/09 08:04:08;;;;;;;5.65;1.10;;;11.50;96.20;;;;;;5000383;28;20041;-63
2023/11/09 08:06:34;;;;;;;1.08;0.70;;;11.60;96.60;;;;;;4999892;28;20193;-64
2023/11/09 08:09:00;;;;;;;2.05;0.70;;;11.60;96.20;;;;;;5002901;28;20179;-63
2023/11/09 08:11:29;;;;;;;1.73;0.75;;;11.70;96.40;;;;;;4999449;28;20056;-63
2023/11/09 08:13:55;;;;;;;1.08;0.80;;;11.70;95.90;;;;;;4998443;28;20502;-64
2023/11/09 08:16:21;;;;;;;2.13;0.70;;;11.70;96.10;;;;;;4998906;28;20037;-64
2023/11/09 08:18:46;;;;;;;1.33;1.10;;;11.80;96.00;;;;;;5000812;28;20627;-64
2023/11/09 08:21:12;;;;;;;3.03;0.70;;;11.90;95.70;;;;;;5000595;28;20045;-63
2023/11/09 08:23:39;;;;;;;3.17;0.70;;;11.90;95.20;;;;;;4996984;28;20490;-63
2023/11/09 08:26:05;;;;;;;1.00;0.57;;;11.90;95.40;;;;;;4998621;28;20105;-63
2023/11/09 08:28:31;;;;;;;1.50;0.70;;;11.80;95.70;;;;;;4997103;28;20022;-63
2023/11/09 08:31:00;;;;;;;1.30;0.70;;;11.70;95.40;;;;;;4999041;28;20046;-63
2023/11/09 08:33:26;;;;;;;1.02;0.60;;;11.80;95.60;;;;;;4997213;28;20030;-63
2023/11/09 08:35:53;;;;;;;1.70;0.60;;;11.90;95.30;;;;;;5000388;28;20430;-64
2023/11/09 08:38:22;;;;;;;1.30;0.82;;;12.00;95.40;;;;;;4996481;28;20703;-64
2023/11/09 08:40:49;;;;;;;0.82;0.80;;;12.20;94.30;;;;;;5000662;28;20045;-63
2023/11/09 08:43:15;;;;;;;0.65;0.52;;;12.00;94.30;;;;;;4995496;28;20035;-63
2023/11/09 08:45:42;;;;;;;0.60;0.43;;;12.00;94.20;;;;;;5003277;28;20505;-63
2023/11/09 08:48:09;;;;;;;2.72;0.65;;;12.00;94.50;;;;;;4994889;28;20084;-62
2023/11/09 08:50:36;;;;;;;3.22;0.88;;;12.10;94.40;;;;;;5001642;28;20026;-62
2023/11/09 08:53:03;;;;;;;4.15;0.60;;;12.20;94.20;;;;;;4994434;28;20048;-62
2023/11/09 08:55:30;;;;;;;1.77;0.80;;;12.20;94.00;;;;;;5001889;28;20042;-62
2023/11/09 08:57:58;;;;;;;1.20;0.63;;;12.20;94.20;;;;;;4995440;28;20030;-62
2023/11/09 09:00:28;;;;;;;0.82;0.70;;;12.30;94.00;;;;;;5000871;28;20026;-62
2023/11/09 09:02:54;;;;;;;0.45;0.35;;;12.30;93.70;;;;;;4995234;28;20040;-62
2023/11/09 09:05:27;;;;;;;1.98;0.60;;;12.40;94.10;;;;;;5000962;28;20019;-62
2023/11/09 09:07:56;;;;;;;1.85;0.68;;;12.50;93.80;;;;;;4995577;28;20047;-62
2023/11/09 09:10:23;;;;;;;0.88;0.70;;;12.50;93.60;;;;;;5001602;28;20044;-62
2023/11/09 09:12:51;;;;;;;1.52;0.98;;;12.30;93.70;;;;;;4999710;28;20124;-62
2023/11/09 09:15:19;;;;;;;2.50;0.60;;;12.30;94.00;;;;;;5000483;28;20035;-62
2023/11/09 09:17:49;;;;;;;0.85;0.60;;;12.20;93.70;;;;;;4998148;28;20029;-62
2023/11/09 09:20:20;;;;;;;0.95;0.50;;;12.30;93.60;;;;;;4999161;28;20092;-62
2023/11/09 09:22:54;;;;;;;2.92;0.82;;;12.30;93.50;;;;;;4995596;28;20038;-62
2023/11/09 09:25:22;;;;;;;1.00;0.40;;;12.20;93.60;;;;;;4997906;28;20044;-62
2023/11/09 09:27:53;;;;;;;0.88;0.70;;;12.20;93.60;;;;;;4997265;28;20030;-62
2023/11/09 09:30:21;;;;;;;2.33;0.68;;;12.20;93.70;;;;;;5001340;28;20092;-62
2023/11/09 09:32:56;;;;;;;2.28;0.80;;;12.20;93.30;;;;;;4997054;28;20077;-62
2023/11/09 09:35:26;;;;;;;2.17;0.70;;;12.20;93.50;;;;;;5001678;28;20034;-62
2023/11/09 09:37:52;;;;;;;1.75;0.63;;;12.20;93.50;;;;;;4996209;28;20026;-62
2023/11/09 09:40:23;;;;;;;3.05;0.80;;;12.30;93.50;;;;;;5000915;28;20029;-62
2023/11/09 09:42:53;;;;;;;2.83;1.02;;;12.40;93.40;;;;;;5000359;28;20068;-63
2023/11/09 09:45:27;;;;;;;2.20;0.57;;;12.40;93.10;;;;;;5002628;28;20553;-62
2023/11/09 09:47:56;;;;;;;1.55;0.50;;;12.60;93.40;;;;;;5000359;28;20026;-62
2023/11/09 09:50:24;;;;;;;4.35;0.77;;;12.80;93.10;;;;;;5002041;28;20034;-62
2023/11/09 09:52:57;;;;;;;2.67;0.50;;;12.80;93.30;;;;;;5000875;28;20046;-62
2023/11/09 09:55:24;;;;;;;4.22;0.60;;;12.60;93.00;;;;;;4998720;28;20033;-62
2023/11/09 09:57:51;;;;;;;2.17;0.90;;;12.60;93.20;;;;;;4998078;28;20038;-62
2023/11/09 10:00:26;;;;;;;1.33;0.60;;;12.60;93.50;;;;;;5000888;28;20085;-62
2023/11/09 10:03:11;;;;;;;0.77;0.50;;;12.50;93.40;;;;;;5000067;28;20037;-62
2023/11/09 10:05:38;;;;;;;1.10;0.73;;;12.60;93.50;;;;;;5004214;28;20111;-63
2023/11/09 10:08:10;;;;;;;1.83;0.80;;;12.70;93.30;;;;;;4999121;28;20372;-62
2023/11/09 10:10:55;;;;;;;4.15;0.80;;;12.60;92.80;;;;;;5003054;28;20033;-62
2023/11/09 10:13:24;;;;;;;1.40;0.60;;;12.40;93.40;;;;;;4999938;28;20096;-62
2023/11/09 10:16:00;;;;;;;1.70;0.70;;;12.50;93.30;;;;;;5002384;28;20046;-62
2023/11/09 10:18:28;;;;;;;0.85;0.40;;;12.40;93.60;;;;;;5001373;28;20358;-62
2023/11/09 10:20:58;;;;;;;0.57;0.57;;;12.30;93.80;;;;;;5001166;28;20076;-62
2023/11/09 10:23:28;;;;;;;0.65;0.63;;;12.20;93.50;;;;;;5000636;28;20033;-62
2023/11/09 10:26:02;;;;;;;1.27;0.77;;;12.30;93.40;;;;;;5005378;28;20030;-62
2023/11/09 10:28:28;;;;;;;0.90;0.70;;;12.40;93.90;;;;;;4999359;28;20030;-62
2023/11/09 10:30:55;;;;;;;0.77;0.65;;;12.20;93.80;;;;;;5001190;28;20575;-62
2023/11/09 10:33:22;;;;;;;3.67;0.80;;;12.20;93.80;;;;;;5000272;28;20133;-63
2023/11/09 10:35:48;;;;;;;1.52;1.20;;;12.20;93.90;;;;;;5002151;28;20037;-63
2023/11/09 10:38:20;;;;;;;0.77;0.70;;;12.30;93.60;;;;;;4999546;28;20034;-62
2023/11/09 10:40:48;;;;;;;3.15;0.82;;;12.40;93.60;;;;;;5002553;28;20036;-62
2023/11/09 10:43:14;;;;;;;0.80;0.60;;;12.40;93.10;;;;;;4999195;28;20030;-62
2023/11/09 10:45:42;;;;;;;1.05;0.70;;;12.50;93.30;;;;;;5003066;28;20037;-63
2023/11/09 10:48:10;;;;;;;0.95;0.70;;;12.50;93.40;;;;;;4999670;28;20037;-63
2023/11/09 10:50:49;;;;;;;3.17;0.70;;;12.60;93.30;;;;;;5001884;28;20763;-63
2023/11/09 10:53:22;;;;;;;3.97;1.00;;;12.60;93.40;;;;;;4999922;28;20038;-62
2023/11/09 10:55:49;;;;;;;1.65;0.50;;;12.60;92.90;;;;;;5002008;28;20042;-63
2023/11/09 10:58:20;;;;;;;3.08;0.60;;;12.60;92.90;;;;;;4999368;28;20030;-63
2023/11/09 11:00:58;;;;;;;1.85;0.47;;;12.70;92.70;;;;;;5002097;28;20061;-62
2023/11/09 11:03:37;;;;;;;6.57;0.82;;;12.70;92.80;;;;;;5000589;28;20061;-65
2023/11/09 11:06:29;;;;;;;2.95;0.70;;;12.70;93.20;;;;;;4999130;28;20104;-67
2023/11/09 11:09:02;;;;;;;3.63;0.63;;;12.50;92.90;;;;;;5002293;28;20034;-67
2023/11/09 11:11:30;;;;;;;2.35;1.15;;;12.30;93.60;;;;;;5005447;28;20084;-67
2023/11/09 11:14:09;;;;;;;1.25;0.60;;;12.30;94.00;;;;;;5006138;28;20045;-67
2023/11/09 11:16:56;;;;;;;1.70;0.63;;;12.30;94.20;;;;;;4997785;28;20037;-67
2023/11/09 11:19:53;;;;;;;2.25;0.80;;;12.40;94.90;;;;;;5005574;28;20038;-66
2023/11/09 11:22:40;;;;;;;6.72;1.98;;;12.50;94.00;;;;;;4996772;28;20037;-67
2023/11/09 11:26:10;;;;;;;1.95;0.80;;;12.60;94.30;;;;;;5001805;28;20185;-67
2023/11/09 11:28:40;;;;;;;0.77;0.40;;;12.70;93.90;;;;;;5007187;28;20044;-67
2023/11/09 11:31:10;;;;;;;1.65;0.77;;;12.80;94.10;;;;;;5003050;28;20056;-67
2023/11/09 11:33:36;;;;;;;2.55;1.30;;;13.00;95.10;;;;;;5006070;28;20038;-67
2023/11/09 11:36:02;;;;;;;1.67;0.70;;;13.10;95.10;;;;;;5004884;28;20038;-67
2023/11/09 11:38:30;;;;;;;1.27;0.68;;;13.00;94.00;;;;;;5006364;28;20421;-67
2023/11/09 11:41:05;;;;;;;2.72;0.80;;;12.70;95.30;;;;;;5005606;28;20033;-66
2023/11/09 11:43:38;;;;;;;2.90;0.98;;;12.50;95.40;;;;;;4999637;28;20034;-66
2023/11/09 11:46:11;;;;;;;1.63;1.15;;;12.40;95.90;;;;;;5005971;28;20475;-67
2023/11/09 11:48:42;;;;;;;2.00;1.20;;;12.20;97.10;;;;;;4999158;28;20472;-67
2023/11/09 11:51:09;;;;;;;1.77;0.93;;;12.30;97.10;;;;;;4999458;28;20529;-66
2023/11/09 11:53:36;;;;;;;6.30;1.30;;;12.30;96.20;;;;;;5005583;28;20037;-66
2023/11/09 11:56:13;;;;;;;4.03;1.00;;;12.20;96.80;;;;;;5005429;28;20048;-67
2023/11/09 11:58:58;;;;;;;4.35;2.10;;;12.40;96.50;;;;;;5004504;28;20088;-67
2023/11/09 12:01:28;;;;;;;1.25;0.80;;;12.50;95.70;;;;;;5005177;28;20042;-67
2023/11/09 12:03:58;;;;;;;2.45;1.80;;;12.70;96.20;;;;;;5005279;28;20041;-66
2023/11/09 12:06:28;;;;;;;5.15;3.42;;;12.80;95.40;;;;;;5004827;28;20045;-67
2023/11/09 12:08:58;;;;;;;7.53;0.82;;;12.80;95.00;;;;;;5003854;28;20032;-67
2023/11/09 12:11:41;;;;;;;1.70;1.23;;;12.70;94.60;;;;;;5005142;28;20123;-65
2023/11/09 12:14:11;;;;;;;1.40;0.65;;;12.70;94.70;;;;;;5005129;28;20140;-67
2023/11/09 12:16:39;;;;;;;1.75;0.80;;;12.60;94.60;;;;;;4997840;28;20045;-67
2023/11/09 12:19:06;;;;;;;1.40;0.80;;;12.60;95.10;;;;;;5003416;28;20038;-67
2023/11/09 12:21:34;;;;;;;1.80;0.43;;;12.80;94.40;;;;;;5005037;28;20038;-66
2023/11/09 12:24:01;;;;;;;4.22;0.88;;;12.90;94.70;;;;;;5003413;28;20053;-67
2023/11/09 12:26:32;;;;;;;1.60;0.85;;;13.10;94.00;;;;;;5003790;28;20037;-66
2023/11/09 12:29:00;;;;;;;1.88;0.82;;;12.90;94.10;;;;;;5005213;28;20080;-66
2023/11/09 12:31:28;;;;;;;2.50;1.45;;;12.90;94.10;;;;;;5004664;28;20069;-67
2023/11/09 12:34:13;;;;;;;0.65;0.60;;;12.90;94.40;;;;;;5004634;28;20065;-67
2023/11/09 12:36:46;;;;;;;2.58;1.60;;;12.90;93.60;;;;;;4997570;28;20036;-66
2023/11/09 12:39:30;;;;;;;3.25;0.85;;;12.80;94.10;;;;;;5004727;28;20036;-67
2023/11/09 12:42:06;;;;;;;1.95;1.10;;;12.80;94.50;;;;;;5004625;28;20462;-67
2023/11/09 12:44:34;;;;;;;0.82;0.60;;;12.80;94.50;;;;;;4998973;28;20030;-67
2023/11/09 12:47:07;;;;;;;2.85;1.05;;;12.70;94.10;;;;;;5004736;28;20033;-66
2023/11/09 12:49:34;;;;;;;6.50;1.58;;;12.80;94.80;;;;;;4994439;28;20034;-67
2023/11/09 12:52:05;;;;;;;6.47;2.88;;;12.90;94.10;;;;;;5004613;28;20029;-67
2023/11/09 12:54:32;;;;;;;2.25;0.93;;;12.90;94.50;;;;;;4996362;28;20121;-67
2023/11/09 12:56:59;;;;;;;1.35;0.82;;;12.90;94.10;;;;;;5003971;28;20044;-67
2023/11/09 12:59:28;;;;;;;0.70;0.68;;;12.70;94.10;;;;;;5004059;28;20037;-67
2023/11/09 13:02:03;;;;;;;1.23;0.52;;;12.70;94.40;;;;;;5004292;28;20100;-67
2023/11/09 13:04:37;;;;;;;14.20;0.88;;;12.80;94.30;;;;;;5004193;28;20056;-67
2023/11/09 13:07:07;;;;;;;1.17;0.65;;;12.80;94.70;;;;;;5004455;28;20053;-67